Time;durP1;ratioP1;P1;durP2;ratioP2;P2;SDS_P1;SDS_P2;PMS_P1;PMS_P2;Temp;Humidity;BMP_temperature;BMP_pressure;BME280_temperature;BME280_humidity;BME280_pressure;Samples;Min_cycle;Max_cycle;Signal;HPM_P1;HPM_P2
2021/07/29 00:01:00;;;;;;;11.63;4.75;;;;;;;16.44;78.02;100830.25;5063954;28;20039;-65
2021/07/29 00:03:26;;;;;;;9.98;4.82;;;;;;;16.37;79.52;100834.75;5074907;28;20138;-65
2021/07/29 00:05:53;;;;;;;11.90;4.97;;;;;;;16.33;79.32;100828.09;5055457;28;20047;-65
2021/07/29 00:08:20;;;;;;;10.57;4.90;;;;;;;16.44;80.11;100834.78;5074388;28;20056;-65
2021/07/29 00:10:48;;;;;;;11.27;4.63;;;;;;;16.58;78.45;100846.47;5073121;28;20032;-65
2021/07/29 00:13:16;;;;;;;10.35;4.53;;;;;;;16.53;78.02;100832.81;5074732;28;20043;-65
2021/07/29 00:15:43;;;;;;;13.07;5.13;;;;;;;16.50;78.67;100824.16;5089566;28;20055;-65
2021/07/29 00:20:47;;;;;;;10.55;5.25;;;;;;;16.59;77.94;100813.31;5089496;28;20121;-65
2021/07/29 00:23:14;;;;;;;12.73;5.32;;;;;;;16.53;79.88;100806.88;5089358;28;20041;-64
2021/07/29 00:25:41;;;;;;;14.35;5.22;;;;;;;16.48;79.86;100794.06;5088481;28;20047;-64
2021/07/29 00:28:10;;;;;;;10.45;5.60;;;;;;;16.57;79.92;100796.59;5089119;28;20074;-64
2021/07/29 00:30:37;;;;;;;10.73;5.05;;;;;;;16.45;78.50;100794.44;5105856;28;20054;-64
2021/07/29 00:33:03;;;;;;;10.48;5.20;;;;;;;16.38;79.10;100808.78;5091333;28;20055;-64
2021/07/29 00:35:31;;;;;;;14.85;5.13;;;;;;;16.46;79.92;100812.19;5089217;28;20044;-64
2021/07/29 00:38:01;;;;;;;11.65;5.43;;;;;;;16.57;78.46;100824.22;5089162;28;20040;-64
2021/07/29 00:40:29;;;;;;;13.75;5.07;;;;;;;16.48;78.66;100839.59;5089811;28;20036;-64
2021/07/29 00:42:55;;;;;;;10.70;5.03;;;;;;;16.48;79.16;100841.41;5089631;28;20127;-64
2021/07/29 00:45:22;;;;;;;13.52;5.05;;;;;;;16.40;79.62;100836.19;5077962;28;20051;-64
2021/07/29 00:47:49;;;;;;;12.27;5.28;;;;;;;16.28;81.02;100841.19;5051340;28;20537;-64
2021/07/29 00:50:26;;;;;;;13.13;5.53;;;;;;;16.28;80.54;100846.56;5068286;28;20106;-64
2021/07/29 00:52:52;;;;;;;16.88;5.32;;;;;;;16.39;79.58;100837.22;5069098;28;20041;-64
2021/07/29 00:55:21;;;;;;;12.73;5.32;;;;;;;16.10;80.61;100833.63;5069311;28;20510;-64
2021/07/29 00:57:47;;;;;;;15.60;5.80;;;;;;;16.02;81.28;100823.84;5068960;28;20044;-64
2021/07/29 01:00:14;;;;;;;13.80;5.32;;;;;;;15.97;82.56;100814.72;5067411;28;20063;-65
2021/07/29 01:02:41;;;;;;;17.10;5.50;;;;;;;16.08;80.80;100808.88;5084797;28;20060;-64
2021/07/29 01:05:09;;;;;;;14.80;5.07;;;;;;;15.91;80.85;100816.28;5069179;28;20430;-64
2021/07/29 01:07:36;;;;;;;14.30;5.63;;;;;;;16.01;81.60;100816.84;5068616;28;20044;-64
2021/07/29 01:10:03;;;;;;;21.33;5.43;;;;;;;15.93;80.48;100819.59;5051282;28;20041;-64
2021/07/29 01:12:30;;;;;;;12.88;5.35;;;;;;;15.90;81.51;100823.50;5068669;28;20049;-64
2021/07/29 01:14:57;;;;;;;10.93;4.72;;;;;;;15.88;79.88;100814.84;5069306;28;20064;-64
2021/07/29 01:17:24;;;;;;;10.45;4.65;;;;;;;15.72;80.00;100820.38;5082853;28;20067;-64
2021/07/29 01:19:51;;;;;;;13.60;4.47;;;;;;;15.83;80.35;100819.91;5087419;28;20052;-64
2021/07/29 01:22:17;;;;;;;11.05;4.18;;;;;;;15.77;79.27;100807.28;5081522;28;20051;-64
2021/07/29 01:24:44;;;;;;;11.55;4.15;;;;;;;15.89;79.16;100811.13;5087015;28;20040;-64
2021/07/29 01:27:11;;;;;;;15.35;4.90;;;;;;;15.78;79.57;100806.25;5088559;28;20075;-64
2021/07/29 01:29:38;;;;;;;13.48;4.43;;;;;;;15.63;81.08;100797.41;5088153;28;20127;-64
2021/07/29 01:32:05;;;;;;;12.52;5.07;;;;;;;15.56;82.24;100791.97;5075592;28;20385;-64
2021/07/29 01:34:32;;;;;;;13.73;4.70;;;;;;;15.45;81.15;100787.09;5074653;28;20047;-65
2021/07/29 01:36:59;;;;;;;12.15;4.85;;;;;;;15.34;81.80;100781.19;5073447;28;20071;-64
2021/07/29 01:39:26;;;;;;;15.57;5.53;;;;;;;15.41;83.25;100786.63;5040514;28;20469;-65
2021/07/29 01:41:52;;;;;;;13.38;4.93;;;;;;;15.32;81.91;100787.75;5052743;28;20052;-64
2021/07/29 01:44:19;;;;;;;17.02;5.30;;;;;;;15.36;82.30;100786.34;5057791;28;20040;-64
2021/07/29 01:46:46;;;;;;;13.93;5.25;;;;;;;15.26;82.31;100788.47;5073369;28;20040;-64
2021/07/29 01:49:19;;;;;;;13.90;5.53;;;;;;;15.29;82.19;100788.09;5073164;28;20047;-64
2021/07/29 01:51:45;;;;;;;11.50;5.25;;;;;;;15.38;82.73;100783.50;5074322;28;20051;-65
2021/07/29 01:54:12;;;;;;;12.45;5.38;;;;;;;15.44;82.23;100785.41;5074138;28;20040;-64
2021/07/29 01:56:41;;;;;;;12.23;5.57;;;;;;;15.48;81.76;100786.69;5074157;28;20413;-65
2021/07/29 01:59:07;;;;;;;12.85;5.00;;;;;;;15.48;82.80;100776.84;5074234;28;20040;-64
2021/07/29 02:01:34;;;;;;;10.88;5.45;;;;;;;15.49;82.71;100775.81;5074355;28;20051;-64
2021/07/29 02:04:01;;;;;;;11.80;4.70;;;;;;;15.51;81.29;100778.31;5073168;28;20048;-64
2021/07/29 02:06:28;;;;;;;15.48;4.90;;;;;;;15.52;80.49;100778.13;5072858;28;20041;-64
2021/07/29 02:08:54;;;;;;;12.57;4.75;;;;;;;15.42;81.37;100784.78;5072822;28;20048;-64
2021/07/29 02:11:24;;;;;;;13.13;5.05;;;;;;;15.33;81.28;100776.03;5074107;28;20047;-64
2021/07/29 02:13:51;;;;;;;10.45;4.95;;;;;;;15.30;81.81;100785.25;5074029;28;20206;-64
2021/07/29 02:16:17;;;;;;;10.18;4.45;;;;;;;15.31;81.22;100786.88;5073872;28;20070;-64
2021/07/29 02:18:44;;;;;;;11.18;4.40;;;;;;;15.31;81.17;100786.06;5073886;28;20527;-64
2021/07/29 02:21:11;;;;;;;14.80;5.32;;;;;;;15.23;82.22;100788.84;5074058;28;20131;-64
2021/07/29 02:23:38;;;;;;;12.25;4.57;;;;;;;15.23;81.03;100786.16;5071995;28;20044;-65
2021/07/29 02:26:05;;;;;;;10.85;4.65;;;;;;;15.25;80.89;100786.81;5073649;28;20070;-65
2021/07/29 02:28:32;;;;;;;12.00;4.63;;;;;;;15.19;80.58;100784.84;5071623;28;20044;-65
2021/07/29 02:30:59;;;;;;;14.85;4.38;;;;;;;15.29;80.58;100790.78;5074695;28;20043;-65
2021/07/29 02:33:26;;;;;;;13.48;4.85;;;;;;;15.14;81.51;100778.22;5073835;28;20040;-65
2021/07/29 02:35:52;;;;;;;10.75;5.03;;;;;;;15.18;82.10;100784.03;5071351;28;20123;-65
2021/07/29 02:38:19;;;;;;;10.40;4.65;;;;;;;15.28;80.80;100789.94;5055239;28;20048;-65
2021/07/29 02:40:46;;;;;;;10.55;4.93;;;;;;;15.23;81.87;100794.19;5073695;28;20043;-65
2021/07/29 02:43:12;;;;;;;11.18;4.60;;;;;;;15.34;80.27;100799.06;5072723;28;20036;-65
2021/07/29 02:45:39;;;;;;;14.13;5.00;;;;;;;15.27;81.67;100798.97;5059096;28;20044;-65
2021/07/29 02:48:06;;;;;;;17.48;4.82;;;;;;;15.12;80.90;100796.28;5052299;28;20405;-65
2021/07/29 02:50:33;;;;;;;14.65;4.82;;;;;;;15.11;81.33;100786.59;5051905;28;20567;-65
2021/07/29 02:52:59;;;;;;;18.92;5.38;;;;;;;15.12;80.79;100792.78;5059060;28;20131;-65
2021/07/29 02:55:26;;;;;;;12.65;4.82;;;;;;;15.20;80.49;100789.19;5071850;28;20044;-65
2021/07/29 02:57:53;;;;;;;11.68;4.65;;;;;;;15.10;80.64;100786.81;5073134;28;20401;-65
2021/07/29 03:00:20;;;;;;;19.67;4.85;;;;;;;15.16;80.12;100783.38;5071975;28;20040;-65
2021/07/29 03:02:46;;;;;;;10.55;4.55;;;;;;;15.10;81.24;100790.31;5072086;28;20037;-65
2021/07/29 03:05:13;;;;;;;16.40;5.22;;;;;;;15.13;81.49;100787.28;5072408;28;20087;-65
2021/07/29 03:07:40;;;;;;;17.33;4.90;;;;;;;15.34;80.08;100785.72;5070817;28;20036;-65
2021/07/29 03:10:07;;;;;;;15.95;5.15;;;;;;;15.28;82.30;100786.44;5072918;28;20036;-65
2021/07/29 03:12:34;;;;;;;13.60;4.30;;;;;;;15.25;80.58;100784.97;5073202;28;20123;-65
2021/07/29 03:15:00;;;;;;;11.13;4.68;;;;;;;15.34;80.04;100789.19;5072538;28;20040;-65
2021/07/29 03:17:27;;;;;;;15.30;4.80;;;;;;;15.45;79.68;100787.91;5072955;28;20078;-65
2021/07/29 03:19:54;;;;;;;15.65;5.07;;;;;;;15.37;79.17;100790.66;5071707;28;20076;-65
2021/07/29 03:22:22;;;;;;;16.00;4.75;;;;;;;15.32;79.92;100799.25;5071224;28;20044;-65
2021/07/29 03:24:48;;;;;;;14.85;4.90;;;;;;;15.42;79.26;100798.16;5072854;28;20124;-65
2021/07/29 03:27:15;;;;;;;15.60;4.80;;;;;;;15.47;79.08;100803.78;5073168;28;20386;-65
2021/07/29 03:29:42;;;;;;;11.05;4.70;;;;;;;15.49;78.56;100791.88;5072913;28;20079;-65
2021/07/29 03:32:08;;;;;;;18.17;5.00;;;;;;;15.50;78.73;100790.03;5055010;28;20515;-65
2021/07/29 03:34:35;;;;;;;11.38;4.82;;;;;;;15.47;79.36;100791.22;5073035;28;20127;-65
2021/07/29 03:37:02;;;;;;;16.33;4.80;;;;;;;15.53;78.79;100792.31;5072567;28;20048;-65
2021/07/29 03:39:29;;;;;;;15.65;5.13;;;;;;;15.51;79.23;100787.16;5072733;28;20128;-65
2021/07/29 03:41:56;;;;;;;14.85;4.70;;;;;;;15.50;78.98;100798.06;5071058;28;20049;-65
2021/07/29 03:44:22;;;;;;;16.10;4.97;;;;;;;15.44;80.34;100809.47;5067129;28;20044;-65
2021/07/29 03:46:49;;;;;;;16.55;4.78;;;;;;;15.49;79.58;100802.56;5072352;28;20428;-65
2021/07/29 03:49:16;;;;;;;18.10;5.15;;;;;;;15.65;79.10;100800.72;5072531;28;20497;-65
2021/07/29 03:51:42;;;;;;;14.20;5.07;;;;;;;15.69;78.38;100802.81;5072054;28;20469;-65
2021/07/29 03:54:09;;;;;;;18.15;4.72;;;;;;;15.79;77.94;100799.91;5071976;28;20064;-64
2021/07/29 03:56:36;;;;;;;12.98;4.90;;;;;;;15.65;79.31;100803.41;5072801;28;20040;-65
2021/07/29 03:59:02;;;;;;;20.98;4.93;;;;;;;15.80;77.92;100800.72;5072044;28;20044;-65
2021/07/29 04:01:29;;;;;;;14.30;4.50;;;;;;;15.80;77.01;100800.72;5071746;28;20061;-65
2021/07/29 04:03:56;;;;;;;11.63;4.13;;;;;;;15.71;76.48;100802.66;5071945;28;20045;-65
2021/07/29 04:06:23;;;;;;;15.48;4.45;;;;;;;15.77;76.32;100801.09;5072035;28;20041;-65
2021/07/29 04:08:49;;;;;;;10.93;4.45;;;;;;;15.83;75.80;100811.06;5070734;28;20041;-65
2021/07/29 04:11:16;;;;;;;16.95;4.32;;;;;;;15.86;75.41;100800.81;5071994;28;20501;-65
2021/07/29 04:13:43;;;;;;;15.55;4.53;;;;;;;15.83;75.34;100811.06;5071939;28;20036;-65
2021/07/29 04:16:11;;;;;;;12.85;3.75;;;;;;;15.85;75.11;100811.72;5050353;28;20078;-65
2021/07/29 04:18:38;;;;;;;18.98;3.80;;;;;;;15.91;74.43;100816.28;5066944;28;20532;-65
2021/07/29 04:21:05;;;;;;;14.18;3.97;;;;;;;15.81;75.93;100810.41;5070782;28;20032;-65
2021/07/29 04:23:31;;;;;;;13.70;3.88;;;;;;;15.84;75.86;100813.53;5071547;28;20049;-65
2021/07/29 04:25:58;;;;;;;17.42;4.10;;;;;;;15.88;74.36;100819.34;5072495;28;20040;-65
2021/07/29 04:28:25;;;;;;;21.92;4.18;;;;;;;15.70;75.52;100817.88;5071287;28;20090;-65
2021/07/29 04:30:51;;;;;;;16.33;3.75;;;;;;;15.75;75.21;100822.66;5072269;28;20049;-65
2021/07/29 04:33:18;;;;;;;12.85;3.92;;;;;;;15.70;75.74;100825.06;5070913;28;20110;-65
2021/07/29 04:35:45;;;;;;;15.70;4.03;;;;;;;15.82;74.07;100833.47;5070350;28;20041;-65
2021/07/29 04:38:11;;;;;;;10.77;4.32;;;;;;;15.81;74.64;100823.78;5071350;28;20485;-65
2021/07/29 04:40:38;;;;;;;11.10;4.28;;;;;;;15.80;74.49;100833.66;5053913;28;20033;-65
2021/07/29 04:43:05;;;;;;;11.57;3.75;;;;;;;15.85;74.82;100841.13;5051931;28;20128;-65
2021/07/29 04:45:32;;;;;;;12.65;3.63;;;;;;;15.81;74.78;100838.00;5062222;28;20452;-65
2021/07/29 04:47:59;;;;;;;14.40;3.90;;;;;;;15.93;74.05;100831.16;5071385;28;20123;-65
2021/07/29 04:50:25;;;;;;;16.20;4.03;;;;;;;15.79;73.95;100834.69;5071604;28;20043;-64
2021/07/29 04:52:53;;;;;;;13.70;4.00;;;;;;;15.88;73.95;100846.09;5069941;28;20053;-65
2021/07/29 04:55:20;;;;;;;12.95;3.80;;;;;;;15.87;74.10;100853.28;5070481;28;20048;-65
2021/07/29 04:57:47;;;;;;;19.08;3.92;;;;;;;15.98;72.65;100851.16;5071858;28;20051;-65
2021/07/29 05:00:14;;;;;;;15.02;3.85;;;;;;;16.01;72.97;100842.75;5071566;28;20036;-65
2021/07/29 05:02:41;;;;;;;16.23;3.90;;;;;;;16.00;73.09;100846.44;5071816;28;20113;-65
2021/07/29 05:05:08;;;;;;;13.15;3.97;;;;;;;15.89;73.17;100843.22;5069941;28;20131;-65
2021/07/29 05:07:35;;;;;;;15.40;3.50;;;;;;;16.07;71.74;100853.53;5073850;28;20405;-65
2021/07/29 05:10:02;;;;;;;15.38;3.78;;;;;;;16.04;72.75;100845.06;5075156;28;20123;-65
2021/07/29 05:12:29;;;;;;;14.45;3.65;;;;;;;16.02;73.03;100847.09;5075372;28;20052;-65
2021/07/29 05:14:56;;;;;;;17.10;3.55;;;;;;;16.09;71.83;100846.16;5073838;28;20040;-65
2021/07/29 05:17:24;;;;;;;20.48;3.85;;;;;;;15.98;73.53;100853.84;5041052;28;20427;-65
2021/07/29 05:19:51;;;;;;;16.23;3.80;;;;;;;16.00;71.99;100852.63;5074978;28;20049;-65
2021/07/29 05:22:17;;;;;;;13.95;3.50;;;;;;;16.04;71.85;100856.56;5074913;28;20504;-65
2021/07/29 05:24:44;;;;;;;12.77;3.10;;;;;;;16.01;71.42;100854.28;5074228;28;20043;-65
2021/07/29 05:27:11;;;;;;;12.40;3.13;;;;;;;16.01;71.56;100862.31;5075084;28;20095;-65
2021/07/29 05:29:38;;;;;;;14.38;3.92;;;;;;;16.06;71.43;100856.41;5074884;28;20074;-65
2021/07/29 05:32:05;;;;;;;18.65;4.43;;;;;;;16.17;71.42;100855.94;5074540;28;20037;-65
2021/07/29 05:34:33;;;;;;;16.92;4.00;;;;;;;16.19;72.71;100855.72;5073682;28;20091;-65
2021/07/29 05:36:59;;;;;;;17.75;3.47;;;;;;;16.27;71.08;100861.78;5074929;28;20094;-65
2021/07/29 05:39:26;;;;;;;13.30;3.45;;;;;;;16.21;71.13;100862.56;5073892;28;20044;-65
2021/07/29 05:41:53;;;;;;;14.02;3.35;;;;;;;16.11;72.29;100868.19;5073232;28;20552;-65
2021/07/29 05:44:20;;;;;;;16.67;4.10;;;;;;;16.10;71.88;100863.06;5071092;28;20497;-65
2021/07/29 05:46:46;;;;;;;16.25;3.83;;;;;;;16.20;71.28;100874.28;5052080;28;20402;-65
2021/07/29 05:49:13;;;;;;;14.20;3.50;;;;;;;16.15;71.06;100874.00;5073540;28;20055;-65
2021/07/29 05:51:40;;;;;;;19.85;3.80;;;;;;;16.15;71.45;100873.19;5074478;28;20041;-65
2021/07/29 05:54:08;;;;;;;17.13;3.63;;;;;;;16.17;70.88;100868.47;5072519;28;20050;-65
2021/07/29 05:56:35;;;;;;;13.82;3.75;;;;;;;16.17;72.28;100873.81;5072972;28;20044;-65
2021/07/29 05:59:01;;;;;;;14.70;3.80;;;;;;;16.40;69.65;100874.50;5074020;28;20456;-65
2021/07/29 06:01:28;;;;;;;16.00;3.30;;;;;;;16.40;70.29;100871.00;5074106;28;20484;-65
2021/07/29 06:03:55;;;;;;;18.20;3.33;;;;;;;16.42;69.98;100879.66;5073137;28;20587;-65
2021/07/29 06:06:22;;;;;;;16.23;3.58;;;;;;;16.38;69.86;100876.53;5073563;28;20068;-65
2021/07/29 06:08:53;;;;;;;14.77;3.45;;;;;;;16.25;70.45;100877.22;5073738;28;20135;-65
2021/07/29 06:11:20;;;;;;;15.00;3.53;;;;;;;16.33;69.47;100870.91;5072553;28;20036;-65
2021/07/29 06:13:46;;;;;;;14.30;3.25;;;;;;;16.35;69.82;100874.22;5074122;28;20052;-65
2021/07/29 06:16:13;;;;;;;15.05;3.35;;;;;;;16.30;69.56;100882.03;5073768;28;20114;-65
2021/07/29 06:18:48;;;;;;;13.90;3.50;;;;;;;16.24;69.23;100882.75;5073472;28;20485;-65
2021/07/29 06:21:15;;;;;;;13.60;3.55;;;;;;;16.34;69.37;100879.81;5073773;28;20044;-65
2021/07/29 06:23:42;;;;;;;19.05;3.40;;;;;;;16.38;69.81;100883.75;5073849;28;20127;-65
2021/07/29 06:26:10;;;;;;;17.08;3.42;;;;;;;16.31;69.51;100891.69;5073694;28;20497;-65
2021/07/29 06:28:39;;;;;;;14.63;3.60;;;;;;;16.19;68.66;100880.66;5074097;28;20052;-63
2021/07/29 06:31:07;;;;;;;14.82;3.65;;;;;;;16.09;69.78;100877.44;5074311;28;20090;-64
2021/07/29 06:33:34;;;;;;;19.77;3.58;;;;;;;16.18;69.68;100879.00;5073370;28;20067;-64
2021/07/29 06:36:03;;;;;;;17.35;3.55;;;;;;;16.28;69.55;100878.69;5071397;28;20044;-64
2021/07/29 06:38:30;;;;;;;13.75;3.63;;;;;;;16.36;69.29;100888.47;5073037;28;20558;-64
2021/07/29 06:40:57;;;;;;;17.48;3.67;;;;;;;16.35;68.53;100894.81;5072217;28;20039;-64
2021/07/29 06:43:24;;;;;;;14.10;3.38;;;;;;;16.35;68.00;100890.28;5073516;28;20048;-65
2021/07/29 06:45:51;;;;;;;15.88;3.70;;;;;;;16.39;67.74;100894.28;5057672;28;20055;-66
2021/07/29 06:48:17;;;;;;;17.63;3.38;;;;;;;16.29;68.89;100891.88;5053322;28;20049;-65
2021/07/29 06:50:44;;;;;;;14.95;3.75;;;;;;;16.33;68.04;100886.97;5053711;28;20296;-63
2021/07/29 06:53:12;;;;;;;13.27;3.45;;;;;;;16.30;68.01;100890.88;5053601;28;20128;-65
2021/07/29 06:55:39;;;;;;;16.30;3.67;;;;;;;16.32;68.43;100893.38;5053696;28;20123;-65
2021/07/29 06:58:06;;;;;;;18.48;3.65;;;;;;;16.39;68.12;100894.28;5052472;28;20048;-63
2021/07/29 07:00:32;;;;;;;16.42;3.47;;;;;;;16.53;68.52;100897.09;5053224;28;20045;-65
2021/07/29 07:02:59;;;;;;;13.70;3.45;;;;;;;16.54;68.18;100898.75;5053545;28;20079;-65
2021/07/29 07:05:26;;;;;;;16.85;3.30;;;;;;;16.72;67.94;100890.28;5052010;28;20090;-65
2021/07/29 07:07:53;;;;;;;16.98;3.28;;;;;;;16.86;65.28;100892.09;5071882;28;20036;-65
2021/07/29 07:10:20;;;;;;;12.65;2.90;;;;;;;16.95;65.27;100906.19;5071325;28;20070;-64
2021/07/29 07:12:47;;;;;;;15.68;3.60;;;;;;;17.00;64.91;100901.09;5054797;28;20047;-63
2021/07/29 07:15:14;;;;;;;18.13;3.10;;;;;;;16.89;65.41;100908.63;5072156;28;20175;-66
2021/07/29 07:17:40;;;;;;;16.27;3.20;;;;;;;16.82;65.35;100909.53;5071566;28;20435;-64
2021/07/29 07:20:09;;;;;;;13.40;2.88;;;;;;;16.89;65.26;100910.47;5072637;28;20041;-63
2021/07/29 07:22:36;;;;;;;15.30;3.30;;;;;;;16.91;64.85;100916.47;5072749;28;20044;-63
2021/07/29 07:25:03;;;;;;;19.60;3.38;;;;;;;17.10;63.82;100920.38;5072277;28;20041;-68
2021/07/29 07:27:30;;;;;;;14.05;3.10;;;;;;;17.15;62.84;100923.28;5047987;28;20135;-66
2021/07/29 07:29:56;;;;;;;16.45;3.10;;;;;;;17.21;63.06;100919.03;5061631;28;20045;-68
2021/07/29 07:32:24;;;;;;;21.42;3.55;;;;;;;17.28;62.94;100925.25;5064151;28;20051;-65
2021/07/29 07:34:50;;;;;;;11.27;2.75;;;;;;;17.12;63.43;100921.00;5058679;28;20045;-64
2021/07/29 07:37:20;;;;;;;17.30;3.17;;;;;;;17.20;63.66;100920.84;5062513;28;20524;-67
2021/07/29 07:39:48;;;;;;;13.07;2.88;;;;;;;17.37;61.91;100925.94;5054959;28;20444;-65
2021/07/29 07:42:15;;;;;;;12.63;3.00;;;;;;;17.46;62.59;100930.13;5065420;28;20048;-64
2021/07/29 07:44:42;;;;;;;15.45;2.85;;;;;;;17.30;61.65;100928.56;5069201;28;20037;-65
2021/07/29 07:47:12;;;;;;;16.67;3.05;;;;;;;17.34;61.45;100934.38;5066812;28;20505;-64
2021/07/29 07:49:47;;;;;;;16.05;2.95;;;;;;;17.18;62.54;100938.97;5065231;28;20131;-65
2021/07/29 07:52:14;;;;;;;13.70;2.90;;;;;;;17.38;62.25;100933.78;5060234;28;20499;-67
2021/07/29 07:54:41;;;;;;;14.02;2.60;;;;;;;17.31;61.36;100934.75;5069360;28;20497;-66
2021/07/29 07:57:07;;;;;;;13.68;2.95;;;;;;;17.42;61.61;100943.09;5073179;28;20649;-67
2021/07/29 07:59:36;;;;;;;13.88;3.13;;;;;;;17.48;61.18;100940.66;5080272;28;20049;-66
2021/07/29 08:02:04;;;;;;;19.13;5.80;;;;;;;17.52;61.49;100934.72;5064053;28;20064;-67
2021/07/29 08:04:31;;;;;;;14.02;4.00;;;;;;;17.58;60.58;100944.66;5067097;28;20090;-67
2021/07/29 08:06:58;;;;;;;14.30;2.85;;;;;;;17.69;59.98;100935.25;5068895;28;20127;-67
2021/07/29 08:09:26;;;;;;;13.95;3.40;;;;;;;17.75;60.65;100930.94;5067575;28;20040;-67
2021/07/29 08:11:53;;;;;;;19.50;3.20;;;;;;;17.80;59.98;100926.66;5070806;28;20071;-67
2021/07/29 08:14:19;;;;;;;12.70;3.28;;;;;;;17.88;59.51;100932.91;5067512;28;20040;-66
2021/07/29 08:16:46;;;;;;;16.35;3.20;;;;;;;17.89;58.51;100938.09;5069908;28;20063;-67
2021/07/29 08:19:13;;;;;;;11.10;2.85;;;;;;;17.68;58.07;100930.06;5084234;28;20062;-67
2021/07/29 08:21:40;;;;;;;14.77;3.13;;;;;;;17.56;59.57;100933.31;5057576;28;20041;-67
2021/07/29 08:24:06;;;;;;;17.80;3.08;;;;;;;17.60;58.41;100921.16;5070368;28;20062;-67
2021/07/29 08:26:33;;;;;;;14.73;3.10;;;;;;;17.62;58.87;100923.66;5066653;28;20465;-67
2021/07/29 08:29:00;;;;;;;15.27;3.10;;;;;;;17.57;58.93;100926.09;5065678;28;20032;-66
2021/07/29 08:31:27;;;;;;;16.92;3.08;;;;;;;17.33;59.04;100924.66;5058826;28;20033;-65
2021/07/29 08:33:54;;;;;;;11.02;2.75;;;;;;;17.36;58.66;100929.66;5061811;28;20044;-66
2021/07/29 08:36:21;;;;;;;17.77;3.30;;;;;;;17.29;59.95;100915.38;5062822;28;20067;-66
2021/07/29 08:38:49;;;;;;;18.67;3.55;;;;;;;17.35;59.43;100923.44;5065559;28;20389;-65
2021/07/29 08:41:17;;;;;;;16.05;3.53;;;;;;;17.45;61.31;100926.63;5066574;28;20065;-65
2021/07/29 08:43:44;;;;;;;14.40;3.20;;;;;;;17.49;58.99;100919.00;5073662;28;20405;-65
2021/07/29 08:46:18;;;;;;;15.45;3.38;;;;;;;17.68;59.49;100925.53;5073089;28;20123;-65
2021/07/29 08:48:47;;;;;;;13.13;2.85;;;;;;;17.79;56.56;100930.38;5070011;28;20048;-66
2021/07/29 08:51:17;;;;;;;15.40;3.22;;;;;;;17.88;56.18;100923.00;5058903;28;20048;-66
2021/07/29 08:53:43;;;;;;;12.15;2.95;;;;;;;17.98;57.33;100922.66;5070697;28;20094;-63
2021/07/29 08:56:12;;;;;;;13.40;3.67;;;;;;;18.15;55.75;100928.50;5072451;28;20076;-63
2021/07/29 08:58:40;;;;;;;13.35;2.95;;;;;;;18.23;55.31;100939.91;5041029;28;20055;-66
2021/07/29 09:01:09;;;;;;;11.00;2.65;;;;;;;18.29;55.21;100927.53;5029147;28;20065;-65
2021/07/29 09:03:36;;;;;;;13.05;3.33;;;;;;;18.39;54.45;100929.84;5017241;28;20041;-65
2021/07/29 09:06:05;;;;;;;13.60;3.10;;;;;;;18.19;56.15;100925.25;5032358;28;20063;-66
2021/07/29 09:08:50;;;;;;;11.32;3.03;;;;;;;18.18;56.78;100939.69;5033598;28;20060;-65
2021/07/29 09:11:35;;;;;;;13.30;2.88;;;;;;;18.15;55.81;100944.63;5020189;28;20121;-65
2021/07/29 09:14:18;;;;;;;17.30;3.03;;;;;;;18.18;55.80;100934.31;5015870;28;20056;-65
2021/07/29 09:17:04;;;;;;;16.27;3.17;;;;;;;18.24;56.74;100935.38;5029971;28;20045;-65
2021/07/29 09:19:40;;;;;;;15.85;3.58;;;;;;;18.30;56.91;100928.38;5028614;28;20507;-66
2021/07/29 09:22:23;;;;;;;11.55;3.10;;;;;;;18.32;56.40;100927.16;5032260;28;20053;-66
2021/07/29 09:25:14;;;;;;;13.80;3.33;;;;;;;18.36;56.07;100939.16;5031839;28;20065;-65
2021/07/29 09:27:43;;;;;;;14.55;3.17;;;;;;;18.42;55.65;100930.28;5030738;28;20045;-65
2021/07/29 09:32:56;;;;;;;19.25;3.03;;;;;;;18.72;54.07;100932.66;5104648;27;20163;-65
2021/07/29 09:35:42;;;;;;;22.95;8.02;;;;;;;18.81;51.71;100927.94;5087569;28;20098;-65
2021/07/29 09:38:24;;;;;;;8.52;2.53;;;;;;;18.77;53.39;100929.34;5079751;28;20043;-65
2021/07/29 09:41:03;;;;;;;12.30;2.83;;;;;;;18.82;52.93;100934.97;5086800;28;20040;-66
2021/07/29 09:43:33;;;;;;;13.98;2.80;;;;;;;18.82;54.65;100934.97;5084929;28;20105;-65
2021/07/29 09:46:02;;;;;;;12.85;2.50;;;;;;;18.82;54.26;100945.72;5077757;28;20403;-65
2021/07/29 09:48:29;;;;;;;13.07;3.03;;;;;;;18.82;53.92;100937.66;5088694;28;20090;-66
2021/07/29 09:50:59;;;;;;;13.70;2.70;;;;;;;18.56;53.43;100952.66;5070113;28;20036;-65
2021/07/29 09:53:34;;;;;;;13.05;2.92;;;;;;;18.31;53.90;100952.34;5087314;28;20040;-65
2021/07/29 09:56:07;;;;;;;19.52;3.45;;;;;;;18.53;54.18;100954.91;5087807;28;20052;-65
2021/07/29 09:58:43;;;;;;;13.68;3.20;;;;;;;18.79;53.48;100948.78;5033088;28;20121;-65
2021/07/29 10:01:17;;;;;;;11.57;3.13;;;;;;;19.07;52.64;100934.41;5101726;28;20493;-65
2021/07/29 10:03:48;;;;;;;13.10;3.03;;;;;;;19.01;52.33;100940.56;5080783;28;20052;-65
2021/07/29 10:06:17;;;;;;;14.75;3.03;;;;;;;19.02;52.55;100931.50;5053784;28;20036;-65
2021/07/29 10:08:51;;;;;;;11.00;3.00;;;;;;;18.90;53.02;100942.00;5070234;28;20045;-65
2021/07/29 10:11:21;;;;;;;12.88;3.35;;;;;;;19.06;53.47;100933.53;5088476;28;20044;-65
2021/07/29 10:13:48;;;;;;;15.65;2.97;;;;;;;19.25;52.36;100933.78;5069040;28;20047;-65
2021/07/29 10:16:17;;;;;;;14.40;2.80;;;;;;;19.63;51.93;100938.50;5108124;28;20084;-65
2021/07/29 10:21:30;;;;;;;14.90;3.13;;;;;;;19.70;49.60;100931.25;5130341;27;20385;-64
2021/07/29 10:23:59;;;;;;;17.77;2.90;;;;;;;20.06;49.33;100924.56;5130159;28;20071;-64
2021/07/29 10:26:28;;;;;;;14.40;3.38;;;;;;;20.03;48.66;100935.75;5119299;28;20039;-64
2021/07/29 10:31:57;;;;;;;13.93;3.15;;;;;;;19.53;49.69;100922.78;5127828;27;20357;-65
2021/07/29 10:34:30;;;;;;;14.63;2.92;;;;;;;19.78;50.08;100933.75;5129813;27;20582;-65
2021/07/29 10:36:58;;;;;;;11.15;3.10;;;;;;;20.18;49.41;100930.13;5129956;27;20078;-65
2021/07/29 10:39:26;;;;;;;22.20;3.35;;;;;;;20.39;48.11;100926.31;5128845;27;20039;-65
2021/07/29 10:41:55;;;;;;;19.30;3.20;;;;;;;20.21;45.82;100929.69;5128215;27;20119;-66
2021/07/29 10:44:44;;;;;;;11.50;3.40;;;;;;;20.32;45.52;100929.03;5126900;28;20063;-65
2021/07/29 10:47:14;;;;;;;15.63;2.70;;;;;;;20.20;46.42;100930.75;5134276;27;20040;-66
2021/07/29 10:52:20;;;;;;;15.30;2.80;;;;;;;20.37;45.64;100929.19;5089428;27;20377;-64
2021/07/29 10:54:47;;;;;;;17.77;3.40;;;;;;;20.12;44.83;100926.44;5089338;28;20044;-66
2021/07/29 10:57:14;;;;;;;14.00;2.88;;;;;;;20.10;46.12;100921.25;5071292;28;20052;-66
2021/07/29 10:59:41;;;;;;;16.45;3.22;;;;;;;20.55;45.52;100923.09;5071561;28;20123;-67
2021/07/29 11:02:13;;;;;;;17.13;3.17;;;;;;;20.40;45.13;100926.09;5099407;28;20397;-66
2021/07/29 11:05:01;;;;;;;14.18;2.78;;;;;;;19.98;46.30;100917.56;5078367;28;20452;-68
2021/07/29 11:07:28;;;;;;;12.18;2.55;;;;;;;20.08;47.09;100925.19;5084893;28;20060;-68
2021/07/29 11:10:04;;;;;;;12.85;2.80;;;;;;;19.85;47.35;100931.06;5087644;28;20396;-68
2021/07/29 11:12:34;;;;;;;15.95;3.17;;;;;;;19.94;48.13;100925.22;5068446;28;20452;-68
2021/07/29 11:15:03;;;;;;;15.27;3.10;;;;;;;20.39;47.55;100924.47;5084008;28;20054;-68
2021/07/29 11:17:30;;;;;;;14.57;3.05;;;;;;;20.37;46.58;100926.50;5091338;28;20076;-67
2021/07/29 11:19:56;;;;;;;12.32;3.22;;;;;;;20.29;46.84;100930.28;5087848;28;20075;-67
2021/07/29 11:22:23;;;;;;;12.27;3.05;;;;;;;20.05;47.76;100931.00;5084179;28;20412;-68
2021/07/29 11:24:50;;;;;;;8.88;2.80;;;;;;;19.73;48.41;100930.88;5076481;28;20051;-68
2021/07/29 11:27:29;;;;;;;14.13;3.40;;;;;;;20.03;48.09;100933.91;5072121;28;20074;-67
2021/07/29 11:29:59;;;;;;;11.80;3.50;;;;;;;20.25;46.92;100939.03;5087252;28;20040;-67
2021/07/29 11:32:38;;;;;;;12.60;3.28;;;;;;;20.39;46.69;100939.78;5083424;28;20064;-65
2021/07/29 11:35:08;;;;;;;17.42;3.00;;;;;;;20.64;46.52;100929.09;5086586;28;20068;-63